createdAt,value
2022-10-22T00:00:18.546Z,97976.38
2022-10-22T00:02:45.570Z,97970.16
2022-10-22T00:05:12.584Z,97959.88
2022-10-22T00:07:40.820Z,97947.88
2022-10-22T00:10:11.270Z,97952.22
2022-10-22T00:12:39.618Z,97956.19
2022-10-22T00:15:07.051Z,97952.81
2022-10-22T00:17:33.987Z,97935.13
2022-10-22T00:20:00.966Z,97947.88
2022-10-22T00:22:30.219Z,97941.00
2022-10-22T00:24:57.424Z,97945.34
2022-10-22T00:27:24.277Z,97918.63
2022-10-22T00:29:51.207Z,97943.19
2022-10-22T00:32:18.987Z,97936.56
2022-10-22T00:34:46.032Z,97938.28
2022-10-22T00:37:13.068Z,97931.97
2022-10-22T00:39:40.242Z,97937.88
2022-10-22T00:42:07.284Z,97934.75
2022-10-22T00:45:11.536Z,97933.06
2022-10-22T00:47:40.944Z,97931.25
2022-10-22T00:50:11.863Z,97922.50
2022-10-22T00:52:40.465Z,97918.25
2022-10-22T00:55:08.598Z,97912.44
2022-10-22T00:57:40.030Z,97919.31
2022-10-22T01:00:07.637Z,97922.94
2022-10-22T01:02:34.631Z,97905.25
2022-10-22T01:05:01.779Z,97918.25
2022-10-22T01:07:31.095Z,97915.94
2022-10-22T01:10:32.004Z,97923.19
2022-10-22T01:13:46.715Z,97917.31
2022-10-22T01:16:37.638Z,97894.94
2022-10-22T01:19:36.061Z,97907.59
2022-10-22T01:22:25.869Z,97901.75
2022-10-22T01:25:22.152Z,97902.06
2022-10-22T01:28:11.453Z,97894.13
2022-10-22T01:30:40.471Z,97892.75
2022-10-22T01:33:11.540Z,97886.72
2022-10-22T01:35:42.583Z,97889.00
2022-10-22T01:38:14.190Z,97886.34
2022-10-22T01:40:42.879Z,97864.31
2022-10-22T01:43:11.357Z,97889.94
2022-10-22T01:45:50.613Z,97892.25
2022-10-22T01:48:35.058Z,97894.00
2022-10-22T01:51:24.094Z,97873.53
2022-10-22T01:53:57.790Z,97890.78
2022-10-22T01:56:32.445Z,97889.25
2022-10-22T01:59:37.633Z,97884.19
2022-10-22T02:02:19.367Z,97888.31
2022-10-22T02:04:54.557Z,97888.94
2022-10-22T02:07:26.924Z,97873.63
2022-10-22T02:09:56.219Z,97876.25
2022-10-22T02:12:25.717Z,97887.28
2022-10-22T02:14:53.903Z,97893.38
2022-10-22T02:17:23.036Z,97885.59
2022-10-22T02:20:06.665Z,97886.31
2022-10-22T02:22:34.373Z,97877.03
2022-10-22T02:25:01.419Z,97877.75
2022-10-22T02:28:13.518Z,97898.25
2022-10-22T02:30:44.253Z,97888.88
2022-10-22T02:33:14.127Z,97891.25
2022-10-22T02:35:43.160Z,97891.22
2022-10-22T02:38:13.699Z,97899.69
2022-10-22T02:40:40.846Z,97868.97
2022-10-22T02:43:07.852Z,97892.81
2022-10-22T02:45:35.599Z,97894.66
2022-10-22T02:48:03.077Z,97888.59
2022-10-22T02:50:30.394Z,97880.03
2022-10-22T02:52:57.410Z,97893.47
2022-10-22T02:55:24.241Z,97887.25
2022-10-22T02:57:51.059Z,97877.88
2022-10-22T03:00:18.002Z,97893.13
2022-10-22T03:02:44.911Z,97884.09
2022-10-22T03:05:13.835Z,97882.31
2022-10-22T03:07:41.764Z,97874.00
2022-10-22T03:10:10.431Z,97887.59
2022-10-22T03:12:39.580Z,97886.06
2022-10-22T03:15:08.941Z,97889.53
2022-10-22T03:17:36.383Z,97875.25
2022-10-22T03:20:04.169Z,97883.78
2022-10-22T03:22:32.669Z,97881.97
2022-10-22T03:25:07.894Z,97888.59
2022-10-22T03:27:38.913Z,97872.31
2022-10-22T03:30:08.785Z,97878.50
2022-10-22T03:32:35.663Z,97878.59
2022-10-22T03:35:02.608Z,97869.28
2022-10-22T03:37:31.957Z,97878.94
2022-10-22T03:39:59.269Z,97870.53
2022-10-22T03:42:26.343Z,97881.53
2022-10-22T03:44:53.489Z,97862.88
2022-10-22T03:47:20.386Z,97876.59
2022-10-22T03:49:47.186Z,97873.22
2022-10-22T03:52:15.205Z,97870.75
2022-10-22T03:54:42.754Z,97865.63
2022-10-22T03:57:10.401Z,97868.13
2022-10-22T03:59:47.825Z,97857.06
2022-10-22T04:02:14.833Z,97854.41
2022-10-22T04:04:41.668Z,97839.91
2022-10-22T04:07:09.353Z,97867.16
2022-10-22T04:09:36.313Z,97848.28
2022-10-22T04:12:05.572Z,97865.28
2022-10-22T04:14:32.563Z,97867.09
2022-10-22T04:16:59.555Z,97852.69
2022-10-22T04:19:26.639Z,97873.22
2022-10-22T04:21:53.476Z,97861.16
2022-10-22T04:24:20.532Z,97867.31
2022-10-22T04:26:47.766Z,97858.84
2022-10-22T04:29:16.211Z,97846.06
2022-10-22T04:31:43.735Z,97861.22
2022-10-22T04:34:10.688Z,97871.56
2022-10-22T04:36:38.089Z,97865.59
2022-10-22T04:39:05.973Z,97862.09
2022-10-22T04:41:37.306Z,97863.91
2022-10-22T04:44:05.426Z,97847.44
2022-10-22T04:46:37.338Z,97839.66
2022-10-22T04:49:04.907Z,97848.03
2022-10-22T04:51:33.834Z,97856.91
2022-10-22T04:54:00.733Z,97860.88
2022-10-22T04:56:30.391Z,97860.59
2022-10-22T04:58:58.225Z,97862.41
2022-10-22T05:01:28.473Z,97842.16
2022-10-22T05:03:58.115Z,97845.88
2022-10-22T05:06:26.393Z,97868.47
2022-10-22T05:08:57.420Z,97857.34
2022-10-22T05:11:28.673Z,97859.91
2022-10-22T05:13:57.506Z,97855.84
2022-10-22T05:16:25.376Z,97850.56
2022-10-22T05:18:54.020Z,97859.72
2022-10-22T05:21:21.875Z,97859.50
2022-10-22T05:23:50.631Z,97869.50
2022-10-22T05:26:21.913Z,97838.72
2022-10-22T05:28:50.530Z,97863.75
2022-10-22T05:31:18.602Z,97862.66
2022-10-22T05:33:48.275Z,97853.31
2022-10-22T05:36:25.545Z,97868.41
2022-10-22T05:38:54.117Z,97865.03
2022-10-22T05:41:24.475Z,97871.00
2022-10-22T05:43:54.266Z,97856.44
2022-10-22T05:46:23.242Z,97852.38
2022-10-22T05:48:52.049Z,97860.94
2022-10-22T05:51:20.112Z,97871.75
2022-10-22T05:53:54.587Z,97863.97
2022-10-22T05:56:22.787Z,97845.63
2022-10-22T05:58:50.407Z,97851.38
2022-10-22T06:01:21.414Z,97874.09
2022-10-22T06:03:58.456Z,97868.63
2022-10-22T06:06:47.630Z,97864.94
2022-10-22T06:09:25.235Z,97867.31
2022-10-22T06:11:54.269Z,97872.94
2022-10-22T06:14:22.444Z,97866.75
2022-10-22T06:16:50.781Z,97866.19
2022-10-22T06:19:21.408Z,97871.66
2022-10-22T06:21:51.875Z,97872.25
2022-10-22T06:24:19.313Z,97852.28
2022-10-22T06:26:51.285Z,97870.47
2022-10-22T06:29:20.745Z,97862.25
2022-10-22T06:31:48.575Z,97855.22
2022-10-22T06:34:20.862Z,97868.72
2022-10-22T06:36:48.316Z,97873.03
2022-10-22T06:39:20.822Z,97865.94
2022-10-22T06:41:54.418Z,97867.03
2022-10-22T06:44:21.981Z,97875.94
2022-10-22T06:46:54.271Z,97874.34
2022-10-22T06:52:04.561Z,97866.34
2022-10-22T06:54:37.587Z,97876.81
2022-10-22T09:59:48.051Z,97726.66
2022-10-22T10:02:37.400Z,97756.63
2022-10-22T10:05:07.268Z,97753.63
2022-10-22T10:07:36.018Z,97752.50
2022-10-22T10:10:03.848Z,97750.25
2022-10-22T10:12:57.556Z,97730.09
2022-10-22T10:15:29.561Z,97743.16
2022-10-22T10:18:18.984Z,97754.59
2022-10-22T10:24:11.723Z,97730.09
2022-10-22T10:26:55.188Z,97723.75
2022-10-22T10:29:52.561Z,97716.56
2022-10-22T10:32:41.456Z,97715.41
2022-10-22T10:35:29.857Z,97723.41
2022-10-22T10:38:23.546Z,97710.19
2022-10-22T10:41:25.378Z,97711.59
2022-10-22T10:44:17.394Z,97699.09
2022-10-22T10:47:01.097Z,97690.53
2022-10-22T10:49:33.204Z,97680.00
2022-10-22T10:52:02.773Z,97690.19
2022-10-22T10:55:09.646Z,97666.91
2022-10-22T10:57:50.449Z,97655.63
2022-10-22T11:00:23.043Z,97664.28
2022-10-22T11:03:36.481Z,97668.31
2022-10-22T11:06:09.889Z,97677.75
2022-10-22T11:08:59.963Z,97650.41
2022-10-22T11:11:42.048Z,97662.16
2022-10-22T11:14:25.252Z,97662.38
2022-10-22T11:17:02.234Z,97661.34
2022-10-22T11:19:51.242Z,97663.56
2022-10-22T11:22:28.844Z,97641.41
2022-10-22T11:25:03.595Z,97649.72
2022-10-22T11:27:48.818Z,97640.34
2022-10-22T11:30:23.423Z,97638.97
2022-10-22T11:32:55.189Z,97638.78
2022-10-22T11:35:42.580Z,97624.03
2022-10-22T11:38:36.844Z,97619.34
2022-10-22T11:41:16.051Z,97614.53
2022-10-22T11:44:13.413Z,97611.31
2022-10-22T11:46:47.631Z,97610.75
2022-10-22T11:49:14.754Z,97614.66
2022-10-22T11:51:47.159Z,97607.47
2022-10-22T11:54:43.245Z,97607.25
2022-10-22T11:57:19.748Z,97605.25
2022-10-22T12:00:00.875Z,97593.41
2022-10-22T12:02:45.564Z,97592.81
2022-10-22T12:05:32.916Z,97595.09
2022-10-22T12:08:06.605Z,97590.28
2022-10-22T12:10:48.594Z,97590.06
2022-10-22T12:13:24.063Z,97580.72
2022-10-22T12:15:54.926Z,97569.50
2022-10-22T12:18:27.631Z,97580.63
2022-10-22T12:20:55.448Z,97583.16
2022-10-22T12:23:32.219Z,97578.75
2022-10-22T12:26:00.565Z,97557.84
2022-10-22T12:28:27.494Z,97578.13
2022-10-22T12:30:54.392Z,97571.09
2022-10-22T12:33:25.641Z,97568.81
2022-10-22T12:35:57.679Z,97565.75
2022-10-22T12:38:25.779Z,97559.16
2022-10-22T12:40:58.267Z,97568.06
2022-10-22T12:43:28.971Z,97556.84
2022-10-22T12:46:02.075Z,97557.19
2022-10-22T12:48:34.450Z,97545.00
2022-10-22T12:51:04.137Z,97545.84
2022-10-22T12:53:38.183Z,97542.47
2022-10-22T12:56:10.957Z,97530.13
2022-10-22T12:58:44.110Z,97536.72
2022-10-22T13:01:13.465Z,97540.72
2022-10-22T13:03:48.178Z,97537.66
2022-10-22T13:06:25.697Z,97545.44
2022-10-22T13:09:03.854Z,97546.28
2022-10-22T13:11:39.113Z,97542.06
2022-10-22T13:14:25.676Z,97538.72
2022-10-22T13:17:08.308Z,97532.00
2022-10-22T13:19:43.663Z,97541.75
2022-10-22T13:22:37.760Z,97521.75
2022-10-22T13:25:18.972Z,97534.00
2022-10-22T13:27:52.325Z,97537.56
2022-10-22T13:30:26.857Z,97537.66
2022-10-22T13:33:06.050Z,97521.75
2022-10-22T13:35:36.013Z,97535.97
2022-10-22T13:38:03.881Z,97534.19
2022-10-22T13:40:31.369Z,97536.72
2022-10-22T13:42:58.831Z,97533.66
2022-10-22T13:45:25.798Z,97521.94
2022-10-22T13:47:55.123Z,97534.41
2022-10-22T13:50:22.194Z,97529.28
2022-10-22T13:52:55.368Z,97524.69
2022-10-22T13:55:29.134Z,97517.13
2022-10-22T13:58:14.008Z,97523.53
2022-10-22T14:00:46.720Z,97528.66
2022-10-22T14:03:17.520Z,97507.06
2022-10-22T14:05:47.429Z,97514.06
2022-10-22T14:08:21.254Z,97518.78
2022-10-22T14:10:49.741Z,97510.81
2022-10-22T14:13:18.126Z,97496.56
2022-10-22T14:15:49.333Z,97501.81
2022-10-22T14:18:25.529Z,97493.84
2022-10-22T14:20:55.863Z,97505.56
2022-10-22T14:23:27.496Z,97504.31
2022-10-22T14:25:54.591Z,97498.22
2022-10-22T14:28:21.628Z,97493.94
2022-10-22T14:30:49.137Z,97484.09
2022-10-22T14:33:22.571Z,97482.31
2022-10-22T14:35:52.072Z,97471.81
2022-10-22T14:38:20.333Z,97485.34
2022-10-22T14:40:48.102Z,97483.22
2022-10-22T14:43:27.112Z,97469.38
2022-10-22T14:52:37.222Z,97495.81
2022-10-22T14:55:05.646Z,97476.91
2022-10-22T14:57:34.303Z,97481.63
2022-10-22T15:00:02.059Z,97496.31
2022-10-22T15:02:30.401Z,97481.16
2022-10-22T15:07:25.329Z,97500.53
2022-10-22T15:09:52.380Z,97499.03
2022-10-22T15:12:20.722Z,97480.28
2022-10-22T15:14:48.391Z,97475.09
2022-10-22T15:17:16.959Z,97476.25
2022-10-22T15:19:44.428Z,97488.81
2022-10-22T15:22:14.099Z,97483.41
2022-10-22T15:24:45.461Z,97492.22
2022-10-22T15:27:15.535Z,97494.63
2022-10-22T15:29:42.891Z,97497.81
2022-10-22T15:32:13.083Z,97501.84
2022-10-22T15:34:41.189Z,97504.16
2022-10-22T15:37:12.311Z,97500.03
2022-10-22T15:39:42.034Z,97503.66
2022-10-22T15:42:10.559Z,97513.00
2022-10-22T15:44:39.890Z,97515.44
2022-10-22T15:47:07.916Z,97509.84
2022-10-22T15:49:37.276Z,97502.81
2022-10-22T15:52:06.351Z,97507.56
2022-10-22T15:54:33.659Z,97498.81
2022-10-22T15:57:08.466Z,97508.94
2022-10-22T15:59:36.056Z,97511.91
2022-10-22T16:02:03.131Z,97522.75
2022-10-22T16:04:30.836Z,97521.25
2022-10-22T16:06:58.031Z,97518.84
2022-10-22T16:09:27.995Z,97498.72
2022-10-22T16:11:55.867Z,97516.88
2022-10-22T16:14:24.133Z,97526.56
2022-10-22T16:16:56.281Z,97535.63
2022-10-22T16:19:24.685Z,97535.78
2022-10-22T16:21:54.349Z,97534.78
2022-10-22T16:24:21.753Z,97527.69
2022-10-22T16:26:49.257Z,97525.94
2022-10-22T16:29:16.789Z,97533.00
2022-10-22T16:31:45.521Z,97518.94
2022-10-22T16:34:12.973Z,97517.50
2022-10-22T16:36:39.937Z,97534.94
2022-10-22T16:39:07.161Z,97515.53
2022-10-22T16:41:35.715Z,97534.09
2022-10-22T16:44:06.005Z,97520.75
2022-10-22T16:46:36.708Z,97529.22
2022-10-22T16:49:07.789Z,97524.00
2022-10-22T16:51:35.538Z,97535.19
2022-10-22T16:54:08.192Z,97513.25
2022-10-22T16:56:39.500Z,97541.09
2022-10-22T16:59:08.810Z,97541.34
2022-10-22T17:01:40.602Z,97522.50
2022-10-22T17:04:08.330Z,97537.47
2022-10-22T17:06:35.644Z,97534.78
2022-10-22T17:09:02.893Z,97543.38
2022-10-22T17:11:35.134Z,97541.09
2022-10-22T17:14:04.561Z,97533.88
2022-10-22T17:16:31.652Z,97534.78
2022-10-22T17:18:58.631Z,97522.06
2022-10-22T17:21:25.640Z,97543.34
2022-10-22T17:23:57.100Z,97530.56
2022-10-22T17:26:26.582Z,97539.13
2022-10-22T17:28:54.904Z,97542.69
2022-10-22T17:31:23.163Z,97525.75
2022-10-22T17:33:52.958Z,97522.22
2022-10-22T17:36:21.900Z,97513.28
2022-10-22T17:38:52.518Z,97520.63
2022-10-22T17:41:26.805Z,97522.00
2022-10-22T17:43:56.391Z,97520.53
2022-10-22T17:46:29.060Z,97524.34
2022-10-22T17:49:00.481Z,97514.56
2022-10-22T17:51:28.812Z,97510.25
2022-10-22T17:53:58.782Z,97513.94
2022-10-22T17:56:28.051Z,97514.13
2022-10-22T17:58:56.577Z,97515.03
2022-10-22T18:01:25.267Z,97520.53
2022-10-22T18:03:54.004Z,97531.50
2022-10-22T18:06:22.044Z,97515.66
2022-10-22T18:08:49.587Z,97514.97
2022-10-22T18:11:19.786Z,97516.19
2022-10-22T18:13:51.450Z,97502.63
2022-10-22T18:16:18.751Z,97523.00
2022-10-22T18:18:50.374Z,97520.94
2022-10-22T18:21:19.200Z,97515.91
2022-10-22T18:23:47.398Z,97510.28
2022-10-22T18:26:15.811Z,97511.06
2022-10-22T18:28:43.784Z,97511.22
2022-10-22T18:31:13.863Z,97520.09
2022-10-22T18:33:40.896Z,97525.06
2022-10-22T18:36:10.475Z,97524.53
2022-10-22T18:38:40.807Z,97530.09
2022-10-22T18:41:09.818Z,97520.53
2022-10-22T18:43:37.207Z,97507.84
2022-10-22T18:46:07.193Z,97482.16
2022-10-22T18:48:35.385Z,97481.28
2022-10-22T18:51:08.784Z,97521.97
2022-10-22T18:53:40.295Z,97518.56
2022-10-22T18:56:12.188Z,97494.91
2022-10-22T18:58:42.693Z,97500.72
2022-10-22T19:01:34.049Z,97502.31
2022-10-22T19:04:01.571Z,97459.47
2022-10-22T19:06:37.616Z,97497.31
2022-10-22T19:09:05.469Z,97511.22
2022-10-22T19:11:32.572Z,97514.03
2022-10-22T19:13:59.603Z,97508.72
2022-10-22T19:16:27.249Z,97510.53
2022-10-22T19:19:05.226Z,97497.47
2022-10-22T19:21:33.417Z,97492.72
2022-10-22T19:24:01.291Z,97504.59
2022-10-22T19:26:30.267Z,97508.03
2022-10-22T19:29:00.129Z,97495.03
2022-10-22T19:31:32.834Z,97511.72
2022-10-22T19:34:01.397Z,97511.25
2022-10-22T19:36:30.276Z,97484.16
2022-10-22T19:38:59.000Z,97501.41
2022-10-22T19:41:28.645Z,97506.97
2022-10-22T19:43:57.766Z,97499.19
2022-10-22T19:46:26.382Z,97488.03
2022-10-22T19:48:54.274Z,97484.97
2022-10-22T19:51:23.420Z,97507.38
2022-10-22T19:53:51.144Z,97511.44
2022-10-22T19:56:20.310Z,97502.16
2022-10-22T19:58:47.783Z,97499.66
2022-10-22T20:01:17.219Z,97498.81
2022-10-22T20:03:45.529Z,97509.88
2022-10-22T20:06:15.944Z,97514.56
2022-10-22T20:08:45.340Z,97517.13
2022-10-22T20:11:18.620Z,97512.63
2022-10-22T20:13:49.605Z,97510.94
2022-10-22T20:16:23.252Z,97500.78
2022-10-22T20:18:51.984Z,97510.81
2022-10-22T20:21:21.168Z,97514.03
2022-10-22T20:23:53.131Z,97515.59
2022-10-22T20:26:21.385Z,97503.78
2022-10-22T20:28:48.447Z,97506.47
2022-10-22T20:31:22.018Z,97504.19
2022-10-22T20:33:50.604Z,97489.66
2022-10-22T20:36:23.857Z,97498.13
2022-10-22T20:38:51.489Z,97491.72
2022-10-22T20:41:21.192Z,97486.81
2022-10-22T20:43:51.073Z,97478.25
2022-10-22T20:46:23.520Z,97478.59
2022-10-22T20:48:58.454Z,97471.38
2022-10-22T20:51:25.490Z,97464.34
2022-10-22T20:53:52.389Z,97471.28
2022-10-22T20:56:20.137Z,97459.84
2022-10-22T20:58:48.846Z,97471.94
2022-10-22T21:01:21.922Z,97448.81
2022-10-22T21:03:50.764Z,97465.53
2022-10-22T21:06:21.016Z,97469.41
2022-10-22T21:08:48.029Z,97454.53
2022-10-22T21:11:15.899Z,97462.53
2022-10-22T21:13:44.527Z,97465.22
2022-10-22T21:16:13.662Z,97466.53
2022-10-22T21:18:40.825Z,97466.47
2022-10-22T21:21:09.823Z,97465.91
2022-10-22T21:23:36.863Z,97458.97
2022-10-22T21:26:04.647Z,97432.13
2022-10-22T21:28:35.682Z,97463.47
2022-10-22T21:31:07.898Z,97469.31
2022-10-22T21:33:42.528Z,97449.19
2022-10-22T21:36:10.183Z,97452.00
2022-10-22T21:38:38.313Z,97447.91
2022-10-22T21:41:11.195Z,97443.34
2022-10-22T21:43:41.277Z,97445.06
2022-10-22T21:46:12.903Z,97434.50
2022-10-22T21:48:40.730Z,97426.31
2022-10-22T21:51:09.881Z,97419.28
2022-10-22T21:53:36.919Z,97431.09
2022-10-22T21:56:04.835Z,97426.63
2022-10-22T21:58:34.344Z,97418.38
2022-10-22T22:01:01.324Z,97416.03
2022-10-22T22:03:28.607Z,97418.72
2022-10-22T22:06:05.604Z,97414.72
2022-10-22T22:08:33.550Z,97405.16
2022-10-22T22:11:06.432Z,97391.31
2022-10-22T22:13:34.912Z,97364.38
2022-10-22T22:16:12.976Z,97399.13
2022-10-22T22:18:41.050Z,97402.22
2022-10-22T22:21:11.775Z,97398.84
2022-10-22T22:23:42.011Z,97393.75
2022-10-22T22:26:10.238Z,97383.22
2022-10-22T22:28:37.329Z,97409.16
2022-10-22T22:31:21.915Z,97389.56
2022-10-22T22:33:48.822Z,97402.03
2022-10-22T22:36:16.732Z,97391.88
2022-10-22T22:38:43.715Z,97390.88
2022-10-22T22:41:10.749Z,97396.38
2022-10-22T22:43:37.877Z,97396.69
2022-10-22T22:46:11.753Z,97380.63
2022-10-22T22:48:38.961Z,97377.13
2022-10-22T22:51:07.379Z,97377.38
2022-10-22T22:53:35.161Z,97375.47
2022-10-22T22:56:06.829Z,97371.44
2022-10-22T22:58:36.921Z,97335.81
2022-10-22T23:01:13.330Z,97371.06
2022-10-22T23:03:40.381Z,97366.97
2022-10-22T23:06:07.803Z,97368.28
2022-10-22T23:08:35.294Z,97359.34
2022-10-22T23:11:04.374Z,97352.69
2022-10-22T23:13:31.515Z,97353.03
2022-10-22T23:16:00.072Z,97355.91
2022-10-22T23:18:27.070Z,97360.25
2022-10-22T23:20:54.037Z,97350.63
2022-10-22T23:23:21.654Z,97355.56
2022-10-22T23:25:48.733Z,97362.31
2022-10-22T23:28:16.031Z,97333.88
2022-10-22T23:30:45.235Z,97339.47
2022-10-22T23:33:12.519Z,97343.63
2022-10-22T23:35:41.950Z,97335.50
2022-10-22T23:38:09.028Z,97330.13
2022-10-22T23:40:36.322Z,97348.00
2022-10-22T23:43:04.849Z,97342.75
2022-10-22T23:45:34.451Z,97337.47
2022-10-22T23:48:02.469Z,97334.00
2022-10-22T23:50:29.940Z,97332.53
2022-10-22T23:52:58.897Z,97328.69
2022-10-22T23:55:25.768Z,97326.03
2022-10-22T23:57:52.661Z,97335.34
